sensor_id;sensor_type;location;lat;lon;timestamp;pressure;altitude;pressure_sealevel;temperature;humidity
72370;BME280;60343;-32.030;115.880;2022-07-29T00:01:23;101409.41;;;17.64;88.56
72370;BME280;60343;-32.030;115.880;2022-07-29T00:03:50;101435.50;;;17.78;87.74
72370;BME280;60343;-32.030;115.880;2022-07-29T00:06:18;101437.78;;;17.81;87.80
72370;BME280;60343;-32.030;115.880;2022-07-29T00:08:46;101433.81;;;17.77;88.16
72370;BME280;60343;-32.030;115.880;2022-07-29T00:11:13;101444.84;;;17.69;87.70
72370;BME280;60343;-32.030;115.880;2022-07-29T00:13:41;101448.09;;;17.58;87.47
72370;BME280;60343;-32.030;115.880;2022-07-29T00:16:15;101443.91;;;17.55;86.91
72370;BME280;60343;-32.030;115.880;2022-07-29T00:18:42;101445.34;;;17.45;88.33
72370;BME280;60343;-32.030;115.880;2022-07-29T00:21:10;101446.38;;;17.44;88.49
72370;BME280;60343;-32.030;115.880;2022-07-29T00:23:38;101437.00;;;17.40;89.10
72370;BME280;60343;-32.030;115.880;2022-07-29T00:26:06;101446.75;;;17.34;89.30
72370;BME280;60343;-32.030;115.880;2022-07-29T00:28:34;101440.47;;;17.27;89.58
72370;BME280;60343;-32.030;115.880;2022-07-29T00:31:01;101444.19;;;17.26;90.03
72370;BME280;60343;-32.030;115.880;2022-07-29T00:33:35;101442.38;;;17.33;90.03
72370;BME280;60343;-32.030;115.880;2022-07-29T00:36:03;101441.09;;;17.29;90.28
72370;BME280;60343;-32.030;115.880;2022-07-29T00:38:31;101444.00;;;17.28;90.50
72370;BME280;60343;-32.030;115.880;2022-07-29T00:40:58;101450.06;;;17.30;90.51
72370;BME280;60343;-32.030;115.880;2022-07-29T00:43:26;101470.88;;;17.29;90.50
72370;BME280;60343;-32.030;115.880;2022-07-29T00:45:54;101480.88;;;17.35;89.40
72370;BME280;60343;-32.030;115.880;2022-07-29T00:48:21;101481.66;;;17.23;88.79
72370;BME280;60343;-32.030;115.880;2022-07-29T00:50:55;101482.06;;;17.20;87.40
72370;BME280;60343;-32.030;115.880;2022-07-29T00:53:25;101492.00;;;17.12;87.62
72370;BME280;60343;-32.030;115.880;2022-07-29T00:55:54;101504.19;;;17.02;87.55
72370;BME280;60343;-32.030;115.880;2022-07-29T00:58:22;101498.59;;;17.03;87.62
72370;BME280;60343;-32.030;115.880;2022-07-29T01:00:50;101473.91;;;17.13;86.94
72370;BME280;60343;-32.030;115.880;2022-07-29T01:03:18;101468.53;;;17.20;87.38
72370;BME280;60343;-32.030;115.880;2022-07-29T01:05:46;101474.81;;;17.27;87.74
72370;BME280;60343;-32.030;115.880;2022-07-29T01:08:21;101479.25;;;17.41;87.62
72370;BME280;60343;-32.030;115.880;2022-07-29T01:10:50;101480.59;;;17.58;86.65
72370;BME280;60343;-32.030;115.880;2022-07-29T01:13:19;101476.06;;;17.65;86.65
72370;BME280;60343;-32.030;115.880;2022-07-29T01:15:49;101484.63;;;17.69;85.27
72370;BME280;60343;-32.030;115.880;2022-07-29T01:18:20;101485.69;;;17.74;85.15
72370;BME280;60343;-32.030;115.880;2022-07-29T01:21:11;101494.88;;;17.80;84.31
72370;BME280;60343;-32.030;115.880;2022-07-29T01:24:11;101487.41;;;17.88;84.43
72370;BME280;60343;-32.030;115.880;2022-07-29T01:27:06;101487.19;;;17.96;83.48
72370;BME280;60343;-32.030;115.880;2022-07-29T01:29:45;101490.81;;;18.23;81.14
72370;BME280;60343;-32.030;115.880;2022-07-29T01:32:19;101494.16;;;18.25;81.92
72370;BME280;60343;-32.030;115.880;2022-07-29T01:34:50;101499.97;;;18.22;81.67
72370;BME280;60343;-32.030;115.880;2022-07-29T01:37:22;101503.94;;;18.26;81.51
72370;BME280;60343;-32.030;115.880;2022-07-29T01:39:55;101492.72;;;18.29;80.91
72370;BME280;60343;-32.030;115.880;2022-07-29T01:42:30;101498.75;;;18.31;80.93
72370;BME280;60343;-32.030;115.880;2022-07-29T01:45:12;101504.41;;;18.43;79.65
72370;BME280;60343;-32.030;115.880;2022-07-29T01:47:44;101500.81;;;18.36;80.72
72370;BME280;60343;-32.030;115.880;2022-07-29T01:50:16;101503.75;;;18.28;81.32
72370;BME280;60343;-32.030;115.880;2022-07-29T01:52:56;101508.13;;;18.29;80.85
72370;BME280;60343;-32.030;115.880;2022-07-29T01:55:27;101514.56;;;18.21;81.18
72370;BME280;60343;-32.030;115.880;2022-07-29T01:57:58;101520.66;;;18.30;79.60
72370;BME280;60343;-32.030;115.880;2022-07-29T02:00:33;101519.44;;;18.46;79.12
72370;BME280;60343;-32.030;115.880;2022-07-29T02:03:04;101523.44;;;18.63;78.64
72370;BME280;60343;-32.030;115.880;2022-07-29T02:05:33;101527.19;;;18.88;78.90
72370;BME280;60343;-32.030;115.880;2022-07-29T02:08:02;101524.41;;;19.41;71.87
72370;BME280;60343;-32.030;115.880;2022-07-29T02:10:33;101524.41;;;19.47;72.63
72370;BME280;60343;-32.030;115.880;2022-07-29T02:13:02;101538.81;;;19.48;71.46
72370;BME280;60343;-32.030;115.880;2022-07-29T02:15:36;101524.19;;;19.55;71.00
72370;BME280;60343;-32.030;115.880;2022-07-29T02:18:07;101529.22;;;19.45;70.64
72370;BME280;60343;-32.030;115.880;2022-07-29T02:20:36;101519.44;;;19.31;71.16
72370;BME280;60343;-32.030;115.880;2022-07-29T02:23:05;101523.38;;;19.28;70.50
72370;BME280;60343;-32.030;115.880;2022-07-29T02:25:35;101521.31;;;19.24;73.54
72370;BME280;60343;-32.030;115.880;2022-07-29T02:28:03;101510.44;;;19.31;71.66
72370;BME280;60343;-32.030;115.880;2022-07-29T02:30:40;101517.75;;;19.23;71.62
72370;BME280;60343;-32.030;115.880;2022-07-29T02:33:10;101512.34;;;19.04;73.09
72370;BME280;60343;-32.030;115.880;2022-07-29T02:35:40;101513.22;;;18.78;72.82
72370;BME280;60343;-32.030;115.880;2022-07-29T02:38:09;101515.50;;;18.74;73.30
72370;BME280;60343;-32.030;115.880;2022-07-29T02:40:40;101521.34;;;18.78;74.00
72370;BME280;60343;-32.030;115.880;2022-07-29T02:43:10;101519.47;;;18.78;74.11
72370;BME280;60343;-32.030;115.880;2022-07-29T02:45:44;101512.38;;;18.77;73.90
72370;BME280;60343;-32.030;115.880;2022-07-29T02:48:16;101517.59;;;18.85;72.16
72370;BME280;60343;-32.030;115.880;2022-07-29T02:50:50;101514.25;;;18.83;73.88
72370;BME280;60343;-32.030;115.880;2022-07-29T02:53:20;101512.56;;;18.82;71.77
72370;BME280;60343;-32.030;115.880;2022-07-29T02:55:54;101525.72;;;18.72;70.71
72370;BME280;60343;-32.030;115.880;2022-07-29T02:58:27;101524.91;;;18.65;72.39
72370;BME280;60343;-32.030;115.880;2022-07-29T03:01:03;101513.84;;;18.60;71.84
72370;BME280;60343;-32.030;115.880;2022-07-29T03:03:33;101520.31;;;18.66;72.81
72370;BME280;60343;-32.030;115.880;2022-07-29T03:06:02;101514.69;;;18.80;71.91
72370;BME280;60343;-32.030;115.880;2022-07-29T03:08:31;101511.13;;;18.93;71.34
72370;BME280;60343;-32.030;115.880;2022-07-29T03:11:00;101515.50;;;18.94;71.31
72370;BME280;60343;-32.030;115.880;2022-07-29T03:13:28;101527.59;;;18.98;71.17
72370;BME280;60343;-32.030;115.880;2022-07-29T03:16:02;101518.63;;;18.98;69.59
72370;BME280;60343;-32.030;115.880;2022-07-29T03:18:31;101515.50;;;19.01;69.75
72370;BME280;60343;-32.030;115.880;2022-07-29T03:20:59;101512.16;;;19.05;68.74
72370;BME280;60343;-32.030;115.880;2022-07-29T03:23:27;101513.19;;;19.11;67.37
72370;BME280;60343;-32.030;115.880;2022-07-29T03:25:55;101509.66;;;19.10;68.06
72370;BME280;60343;-32.030;115.880;2022-07-29T03:28:23;101512.59;;;18.96;70.80
72370;BME280;60343;-32.030;115.880;2022-07-29T03:30:51;101518.41;;;18.93;69.69
72370;BME280;60343;-32.030;115.880;2022-07-29T03:33:24;101501.31;;;18.72;68.69
72370;BME280;60343;-32.030;115.880;2022-07-29T03:35:52;101508.81;;;18.77;68.04
72370;BME280;60343;-32.030;115.880;2022-07-29T03:38:20;101504.66;;;18.74;66.28
72370;BME280;60343;-32.030;115.880;2022-07-29T03:40:51;101497.97;;;18.77;65.88
72370;BME280;60343;-32.030;115.880;2022-07-29T03:43:21;101512.38;;;18.84;67.23
72370;BME280;60343;-32.030;115.880;2022-07-29T03:45:52;101500.91;;;18.89;67.74
72370;BME280;60343;-32.030;115.880;2022-07-29T03:48:27;101490.44;;;19.05;67.60
72370;BME280;60343;-32.030;115.880;2022-07-29T03:50:56;101486.66;;;19.06;68.30
72370;BME280;60343;-32.030;115.880;2022-07-29T03:53:24;101473.66;;;19.35;64.26
72370;BME280;60343;-32.030;115.880;2022-07-29T03:55:58;101476.81;;;19.83;63.79
72370;BME280;60343;-32.030;115.880;2022-07-29T03:58:27;101472.91;;;20.17;60.31
72370;BME280;60343;-32.030;115.880;2022-07-29T04:00:56;101468.41;;;20.60;60.09
72370;BME280;60343;-32.030;115.880;2022-07-29T04:03:29;101461.91;;;20.30;58.38
72370;BME280;60343;-32.030;115.880;2022-07-29T04:06:02;101475.50;;;20.30;60.42
72370;BME280;60343;-32.030;115.880;2022-07-29T04:08:30;101468.00;;;20.25;59.19
72370;BME280;60343;-32.030;115.880;2022-07-29T04:10:57;101460.03;;;20.30;59.10
72370;BME280;60343;-32.030;115.880;2022-07-29T04:13:26;101457.84;;;20.14;61.22
72370;BME280;60343;-32.030;115.880;2022-07-29T04:15:53;101458.97;;;20.00;60.03
72370;BME280;60343;-32.030;115.880;2022-07-29T04:18:21;101451.69;;;19.94;60.29
72370;BME280;60343;-32.030;115.880;2022-07-29T04:20:55;101453.59;;;19.87;59.91
72370;BME280;60343;-32.030;115.880;2022-07-29T04:23:22;101454.88;;;19.84;57.88
72370;BME280;60343;-32.030;115.880;2022-07-29T04:25:50;101455.44;;;19.93;57.64
72370;BME280;60343;-32.030;115.880;2022-07-29T04:28:18;101453.53;;;20.00;57.62
72370;BME280;60343;-32.030;115.880;2022-07-29T04:30:45;101446.63;;;20.04;58.24
72370;BME280;60343;-32.030;115.880;2022-07-29T04:33:13;101438.47;;;20.04;56.89
72370;BME280;60343;-32.030;115.880;2022-07-29T04:35:41;101439.25;;;20.11;57.23
72370;BME280;60343;-32.030;115.880;2022-07-29T04:38:14;101441.53;;;20.14;57.07
72370;BME280;60343;-32.030;115.880;2022-07-29T04:40:42;101440.38;;;19.97;56.62
72370;BME280;60343;-32.030;115.880;2022-07-29T04:43:10;101442.13;;;19.85;57.51
72370;BME280;60343;-32.030;115.880;2022-07-29T04:45:37;101435.06;;;19.77;58.07
72370;BME280;60343;-32.030;115.880;2022-07-29T04:48:05;101434.16;;;19.90;58.29
72370;BME280;60343;-32.030;115.880;2022-07-29T04:50:33;101429.78;;;19.89;57.15
72370;BME280;60343;-32.030;115.880;2022-07-29T04:53:01;101423.56;;;19.82;57.85
72370;BME280;60343;-32.030;115.880;2022-07-29T04:55:34;101425.50;;;19.68;58.09
72370;BME280;60343;-32.030;115.880;2022-07-29T04:58:02;101415.53;;;19.55;58.22
72370;BME280;60343;-32.030;115.880;2022-07-29T05:00:30;101421.38;;;19.52;59.34
72370;BME280;60343;-32.030;115.880;2022-07-29T05:02:57;101413.09;;;19.34;59.78
72370;BME280;60343;-32.030;115.880;2022-07-29T05:05:25;101423.50;;;19.44;61.52
72370;BME280;60343;-32.030;115.880;2022-07-29T05:07:53;101421.69;;;19.31;60.84
72370;BME280;60343;-32.030;115.880;2022-07-29T05:10:20;101422.28;;;19.46;59.41
72370;BME280;60343;-32.030;115.880;2022-07-29T05:12:54;101423.75;;;19.29;59.49
72370;BME280;60343;-32.030;115.880;2022-07-29T05:15:21;101413.16;;;19.21;60.73
72370;BME280;60343;-32.030;115.880;2022-07-29T05:17:49;101408.25;;;19.49;60.25
72370;BME280;60343;-32.030;115.880;2022-07-29T05:20:17;101397.38;;;19.87;58.27
72370;BME280;60343;-32.030;115.880;2022-07-29T05:22:44;101391.09;;;20.18;58.38
72370;BME280;60343;-32.030;115.880;2022-07-29T05:25:12;101383.22;;;20.41;56.42
72370;BME280;60343;-32.030;115.880;2022-07-29T05:27:39;101378.56;;;20.67;52.74
72370;BME280;60343;-32.030;115.880;2022-07-29T05:30:13;101374.69;;;20.56;51.57
72370;BME280;60343;-32.030;115.880;2022-07-29T05:32:41;101367.97;;;20.59;51.42
72370;BME280;60343;-32.030;115.880;2022-07-29T05:35:09;101346.38;;;20.82;52.51
72370;BME280;60343;-32.030;115.880;2022-07-29T05:37:37;101351.13;;;20.86;51.56
72370;BME280;60343;-32.030;115.880;2022-07-29T05:40:07;101355.16;;;21.02;51.50
72370;BME280;60343;-32.030;115.880;2022-07-29T05:42:35;101348.31;;;20.93;51.88
72370;BME280;60343;-32.030;115.880;2022-07-29T05:45:03;101344.03;;;20.67;50.97
72370;BME280;60343;-32.030;115.880;2022-07-29T05:47:36;101350.13;;;20.63;49.59
72370;BME280;60343;-32.030;115.880;2022-07-29T05:50:04;101360.41;;;20.61;49.40
72370;BME280;60343;-32.030;115.880;2022-07-29T05:52:32;101347.88;;;20.60;50.29
72370;BME280;60343;-32.030;115.880;2022-07-29T05:55:00;101355.28;;;20.71;53.43
72370;BME280;60343;-32.030;115.880;2022-07-29T05:57:28;101353.63;;;20.88;51.03
72370;BME280;60343;-32.030;115.880;2022-07-29T05:59:56;101360.59;;;21.02;49.91
72370;BME280;60343;-32.030;115.880;2022-07-29T06:02:23;101354.91;;;21.04;51.45
72370;BME280;60343;-32.030;115.880;2022-07-29T06:04:56;101342.00;;;20.81;50.70
72370;BME280;60343;-32.030;115.880;2022-07-29T06:07:24;101335.31;;;20.95;49.01
72370;BME280;60343;-32.030;115.880;2022-07-29T06:09:52;101340.56;;;20.96;48.26
72370;BME280;60343;-32.030;115.880;2022-07-29T06:12:20;101340.84;;;20.88;50.65
72370;BME280;60343;-32.030;115.880;2022-07-29T06:14:47;101339.63;;;20.84;50.32
72370;BME280;60343;-32.030;115.880;2022-07-29T06:17:18;101335.41;;;20.70;50.17
72370;BME280;60343;-32.030;115.880;2022-07-29T06:19:46;101338.59;;;20.67;51.09
72370;BME280;60343;-32.030;115.880;2022-07-29T06:22:19;101331.84;;;20.27;52.83
72370;BME280;60343;-32.030;115.880;2022-07-29T06:24:47;101337.88;;;20.04;53.57
72370;BME280;60343;-32.030;115.880;2022-07-29T06:27:14;101343.88;;;20.12;53.43
72370;BME280;60343;-32.030;115.880;2022-07-29T06:29:42;101339.94;;;20.08;52.99
72370;BME280;60343;-32.030;115.880;2022-07-29T06:32:10;101338.06;;;20.09;53.68
72370;BME280;60343;-32.030;115.880;2022-07-29T06:34:38;101339.72;;;20.10;54.38
72370;BME280;60343;-32.030;115.880;2022-07-29T06:37:09;101344.69;;;20.13;53.69
72370;BME280;60343;-32.030;115.880;2022-07-29T06:39:42;101343.44;;;19.91;53.44
72370;BME280;60343;-32.030;115.880;2022-07-29T06:42:09;101335.59;;;19.76;54.73
72370;BME280;60343;-32.030;115.880;2022-07-29T06:44:37;101334.03;;;19.87;54.89
72370;BME280;60343;-32.030;115.880;2022-07-29T06:47:05;101338.88;;;19.85;53.93
72370;BME280;60343;-32.030;115.880;2022-07-29T06:49:33;101348.91;;;19.84;52.81
72370;BME280;60343;-32.030;115.880;2022-07-29T06:52:00;101351.09;;;19.69;54.75
72370;BME280;60343;-32.030;115.880;2022-07-29T06:54:28;101361.66;;;19.52;54.48
72370;BME280;60343;-32.030;115.880;2022-07-29T06:57:01;101372.50;;;19.01;61.61
72370;BME280;60343;-32.030;115.880;2022-07-29T06:59:29;101357.75;;;18.51;65.75
72370;BME280;60343;-32.030;115.880;2022-07-29T07:01:57;101374.69;;;18.27;68.38
72370;BME280;60343;-32.030;115.880;2022-07-29T07:04:24;101369.91;;;18.09;70.70
72370;BME280;60343;-32.030;115.880;2022-07-29T07:06:52;101365.09;;;18.18;68.23
72370;BME280;60343;-32.030;115.880;2022-07-29T07:09:20;101379.72;;;18.30;68.12
72370;BME280;60343;-32.030;115.880;2022-07-29T07:11:48;101390.13;;;18.33;67.12
72370;BME280;60343;-32.030;115.880;2022-07-29T07:14:22;101414.06;;;18.16;69.38
72370;BME280;60343;-32.030;115.880;2022-07-29T07:16:50;101424.75;;;17.57;73.55
72370;BME280;60343;-32.030;115.880;2022-07-29T07:19:18;101413.31;;;17.07;78.68
72370;BME280;60343;-32.030;115.880;2022-07-29T07:21:45;101414.03;;;16.88;79.14
72370;BME280;60343;-32.030;115.880;2022-07-29T07:24:13;101399.69;;;17.29;79.06
72370;BME280;60343;-32.030;115.880;2022-07-29T07:26:41;101395.31;;;17.95;76.55
72370;BME280;60343;-32.030;115.880;2022-07-29T07:29:09;101394.47;;;17.94;76.77
72370;BME280;60343;-32.030;115.880;2022-07-29T07:31:42;101380.72;;;18.02;74.25
72370;BME280;60343;-32.030;115.880;2022-07-29T07:34:10;101389.91;;;18.21;71.69
72370;BME280;60343;-32.030;115.880;2022-07-29T07:36:40;101392.59;;;18.41;69.38
72370;BME280;60343;-32.030;115.880;2022-07-29T07:39:08;101384.06;;;18.37;69.91
72370;BME280;60343;-32.030;115.880;2022-07-29T07:41:36;101381.38;;;18.70;69.64
72370;BME280;60343;-32.030;115.880;2022-07-29T07:44:04;101374.00;;;18.91;67.23
72370;BME280;60343;-32.030;115.880;2022-07-29T07:46:31;101379.88;;;18.81;67.15
72370;BME280;60343;-32.030;115.880;2022-07-29T07:49:05;101374.06;;;18.44;65.37
72370;BME280;60343;-32.030;115.880;2022-07-29T07:51:32;101374.25;;;18.17;66.21
72370;BME280;60343;-32.030;115.880;2022-07-29T07:54:00;101384.91;;;18.18;66.66
72370;BME280;60343;-32.030;115.880;2022-07-29T07:56:28;101393.84;;;18.12;67.62
72370;BME280;60343;-32.030;115.880;2022-07-29T07:58:55;101398.66;;;17.90;66.06
72370;BME280;60343;-32.030;115.880;2022-07-29T08:01:25;101403.22;;;17.83;65.09
72370;BME280;60343;-32.030;115.880;2022-07-29T08:03:53;101412.38;;;17.82;64.50
72370;BME280;60343;-32.030;115.880;2022-07-29T08:06:26;101437.78;;;17.75;64.40
72370;BME280;60343;-32.030;115.880;2022-07-29T08:08:54;101435.06;;;17.75;64.44
72370;BME280;60343;-32.030;115.880;2022-07-29T08:11:22;101419.44;;;17.70;62.21
72370;BME280;60343;-32.030;115.880;2022-07-29T08:13:50;101429.22;;;17.71;63.42
72370;BME280;60343;-32.030;115.880;2022-07-29T08:16:17;101433.78;;;17.64;62.15
72370;BME280;60343;-32.030;115.880;2022-07-29T08:18:46;101434.75;;;17.50;60.55
72370;BME280;60343;-32.030;115.880;2022-07-29T08:21:14;101424.88;;;17.36;63.55
72370;BME280;60343;-32.030;115.880;2022-07-29T08:23:47;101428.41;;;17.36;60.69
72370;BME280;60343;-32.030;115.880;2022-07-29T08:26:15;101424.63;;;17.24;61.68
72370;BME280;60343;-32.030;115.880;2022-07-29T08:28:44;101435.84;;;17.14;62.66
72370;BME280;60343;-32.030;115.880;2022-07-29T08:31:12;101426.66;;;17.15;63.79
72370;BME280;60343;-32.030;115.880;2022-07-29T08:33:43;101437.28;;;17.17;64.23
72370;BME280;60343;-32.030;115.880;2022-07-29T08:36:11;101434.53;;;17.10;63.25
72370;BME280;60343;-32.030;115.880;2022-07-29T08:38:39;101447.31;;;17.23;60.60
72370;BME280;60343;-32.030;115.880;2022-07-29T08:41:12;101445.81;;;17.21;60.67
72370;BME280;60343;-32.030;115.880;2022-07-29T08:43:41;101444.84;;;17.28;59.30
72370;BME280;60343;-32.030;115.880;2022-07-29T08:46:09;101446.28;;;17.31;59.88
72370;BME280;60343;-32.030;115.880;2022-07-29T08:48:37;101455.09;;;17.39;58.49
72370;BME280;60343;-32.030;115.880;2022-07-29T08:51:07;101450.56;;;17.53;58.67
72370;BME280;60343;-32.030;115.880;2022-07-29T08:53:35;101447.22;;;17.44;57.79
72370;BME280;60343;-32.030;115.880;2022-07-29T08:56:03;101455.53;;;17.43;58.05
72370;BME280;60343;-32.030;115.880;2022-07-29T08:58:37;101453.38;;;17.32;57.52
72370;BME280;60343;-32.030;115.880;2022-07-29T09:01:05;101457.13;;;17.31;56.76
72370;BME280;60343;-32.030;115.880;2022-07-29T09:03:35;101452.50;;;17.18;56.32
72370;BME280;60343;-32.030;115.880;2022-07-29T09:06:04;101455.19;;;17.18;55.95
72370;BME280;60343;-32.030;115.880;2022-07-29T09:08:32;101471.13;;;17.06;55.47
72370;BME280;60343;-32.030;115.880;2022-07-29T09:11:01;101461.56;;;17.04;55.96
72370;BME280;60343;-32.030;115.880;2022-07-29T09:13:29;101452.84;;;17.08;53.75
72370;BME280;60343;-32.030;115.880;2022-07-29T09:16:03;101465.53;;;17.08;51.40
72370;BME280;60343;-32.030;115.880;2022-07-29T09:18:38;101468.28;;;17.14;53.73
72370;BME280;60343;-32.030;115.880;2022-07-29T09:21:06;101467.81;;;17.04;55.28
72370;BME280;60343;-32.030;115.880;2022-07-29T09:23:33;101460.09;;;17.01;53.91
72370;BME280;60343;-32.030;115.880;2022-07-29T09:26:05;101468.66;;;17.05;53.93
72370;BME280;60343;-32.030;115.880;2022-07-29T09:28:33;101467.00;;;17.10;56.35
72370;BME280;60343;-32.030;115.880;2022-07-29T09:31:06;101470.91;;;17.01;55.64
72370;BME280;60343;-32.030;115.880;2022-07-29T09:33:35;101467.56;;;16.71;62.51
72370;BME280;60343;-32.030;115.880;2022-07-29T09:36:05;101475.25;;;16.68;59.82
72370;BME280;60343;-32.030;115.880;2022-07-29T09:38:33;101474.59;;;16.66;60.26
72370;BME280;60343;-32.030;115.880;2022-07-29T09:41:02;101483.19;;;16.55;61.28
72370;BME280;60343;-32.030;115.880;2022-07-29T09:43:30;101486.00;;;16.61;59.66
72370;BME280;60343;-32.030;115.880;2022-07-29T09:46:15;101498.91;;;16.59;61.06
72370;BME280;60343;-32.030;115.880;2022-07-29T09:48:45;101509.50;;;16.61;60.48
72370;BME280;60343;-32.030;115.880;2022-07-29T09:51:32;101507.53;;;16.55;59.85
72370;BME280;60343;-32.030;115.880;2022-07-29T09:54:00;101504.00;;;16.54;58.10
72370;BME280;60343;-32.030;115.880;2022-07-29T09:56:40;101517.91;;;16.72;58.20
72370;BME280;60343;-32.030;115.880;2022-07-29T09:59:08;101514.13;;;16.67;58.57
72370;BME280;60343;-32.030;115.880;2022-07-29T10:01:41;101533.03;;;16.67;59.10
72370;BME280;60343;-32.030;115.880;2022-07-29T10:04:09;101533.69;;;16.69;58.12
72370;BME280;60343;-32.030;115.880;2022-07-29T10:06:56;101538.91;;;16.70;58.41
72370;BME280;60343;-32.030;115.880;2022-07-29T10:09:24;101523.56;;;16.56;60.11
72370;BME280;60343;-32.030;115.880;2022-07-29T10:12:10;101532.50;;;16.57;59.97
72370;BME280;60343;-32.030;115.880;2022-07-29T10:14:38;101534.78;;;16.53;57.71
72370;BME280;60343;-32.030;115.880;2022-07-29T10:17:12;101549.25;;;16.67;55.65
72370;BME280;60343;-32.030;115.880;2022-07-29T10:19:39;101536.78;;;16.66;54.75
72370;BME280;60343;-32.030;115.880;2022-07-29T10:22:09;101550.94;;;16.68;54.91
72370;BME280;60343;-32.030;115.880;2022-07-29T10:24:38;101550.41;;;16.58;53.92
72370;BME280;60343;-32.030;115.880;2022-07-29T10:27:07;101543.16;;;16.58;50.67
72370;BME280;60343;-32.030;115.880;2022-07-29T10:29:35;101556.41;;;16.53;49.98
72370;BME280;60343;-32.030;115.880;2022-07-29T10:32:33;101558.25;;;16.53;49.37
72370;BME280;60343;-32.030;115.880;2022-07-29T10:35:21;101575.09;;;16.55;49.62
72370;BME280;60343;-32.030;115.880;2022-07-29T10:38:19;101594.81;;;16.49;54.73
72370;BME280;60343;-32.030;115.880;2022-07-29T10:40:57;101583.44;;;16.17;57.35
72370;BME280;60343;-32.030;115.880;2022-07-29T10:43:31;101581.69;;;15.95;57.92
72370;BME280;60343;-32.030;115.880;2022-07-29T10:46:01;101573.72;;;15.87;57.05
72370;BME280;60343;-32.030;115.880;2022-07-29T10:48:34;101571.09;;;15.94;56.60
72370;BME280;60343;-32.030;115.880;2022-07-29T10:51:03;101575.19;;;16.04;54.02
72370;BME280;60343;-32.030;115.880;2022-07-29T10:53:48;101585.22;;;16.10;52.05
72370;BME280;60343;-32.030;115.880;2022-07-29T10:56:48;101590.88;;;16.15;50.54
72370;BME280;60343;-32.030;115.880;2022-07-29T11:10:45;101634.59;;;15.60;60.94
72370;BME280;60343;-32.030;115.880;2022-07-29T11:30:56;101619.47;;;15.36;62.74
72370;BME280;60343;-32.030;115.880;2022-07-29T11:47:23;101636.72;;;15.65;59.82
72370;BME280;60343;-32.030;115.880;2022-07-29T11:49:51;101642.88;;;15.59;61.18
72370;BME280;60343;-32.030;115.880;2022-07-29T11:52:19;101656.34;;;15.44;62.70
72370;BME280;60343;-32.030;115.880;2022-07-29T11:54:49;101675.53;;;15.26;66.29
72370;BME280;60343;-32.030;115.880;2022-07-29T11:57:18;101686.16;;;14.82;71.89
72370;BME280;60343;-32.030;115.880;2022-07-29T11:59:46;101670.97;;;14.19;76.61
72370;BME280;60343;-32.030;115.880;2022-07-29T12:02:20;101683.47;;;14.04;77.63
72370;BME280;60343;-32.030;115.880;2022-07-29T12:04:51;101677.81;;;13.83;78.32
72370;BME280;60343;-32.030;115.880;2022-07-29T12:07:19;101680.69;;;13.73;78.71
72370;BME280;60343;-32.030;115.880;2022-07-29T12:09:54;101683.91;;;13.69;79.70
72370;BME280;60343;-32.030;115.880;2022-07-29T12:12:22;101672.97;;;13.70;82.10
72370;BME280;60343;-32.030;115.880;2022-07-29T12:14:50;101666.09;;;13.68;82.04
72370;BME280;60343;-32.030;115.880;2022-07-29T12:17:33;101652.81;;;13.58;81.99
72370;BME280;60343;-32.030;115.880;2022-07-29T12:20:02;101656.34;;;13.59;81.42
72370;BME280;60343;-32.030;115.880;2022-07-29T12:22:31;101653.47;;;13.68;77.47
72370;BME280;60343;-32.030;115.880;2022-07-29T12:25:02;101657.31;;;13.82;73.11
72370;BME280;60343;-32.030;115.880;2022-07-29T12:27:31;101654.09;;;13.79;72.31
72370;BME280;60343;-32.030;115.880;2022-07-29T12:29:59;101649.88;;;13.84;69.88
72370;BME280;60343;-32.030;115.880;2022-07-29T12:32:39;101647.72;;;13.80;71.10
72370;BME280;60343;-32.030;115.880;2022-07-29T12:35:08;101655.69;;;14.04;66.79
72370;BME280;60343;-32.030;115.880;2022-07-29T12:37:37;101663.97;;;14.02;69.33
72370;BME280;60343;-32.030;115.880;2022-07-29T12:40:06;101661.19;;;14.18;67.96
72370;BME280;60343;-32.030;115.880;2022-07-29T12:42:35;101684.25;;;14.21;68.57
72370;BME280;60343;-32.030;115.880;2022-07-29T12:45:03;101683.91;;;14.24;69.62
72370;BME280;60343;-32.030;115.880;2022-07-29T12:47:37;101678.88;;;14.21;69.96
72370;BME280;60343;-32.030;115.880;2022-07-29T12:50:18;101661.88;;;14.21;70.29
72370;BME280;60343;-32.030;115.880;2022-07-29T12:52:46;101657.38;;;14.05;71.46
72370;BME280;60343;-32.030;115.880;2022-07-29T12:55:14;101650.94;;;14.14;69.69
72370;BME280;60343;-32.030;115.880;2022-07-29T12:57:51;101661.25;;;14.10;71.63
72370;BME280;60343;-32.030;115.880;2022-07-29T13:00:23;101675.88;;;14.16;69.70
72370;BME280;60343;-32.030;115.880;2022-07-29T13:03:01;101678.88;;;14.21;67.30
72370;BME280;60343;-32.030;115.880;2022-07-29T13:05:41;101647.88;;;14.25;65.30
72370;BME280;60343;-32.030;115.880;2022-07-29T13:08:16;101639.25;;;14.30;65.16
72370;BME280;60343;-32.030;115.880;2022-07-29T13:10:45;101640.94;;;14.31;66.83
72370;BME280;60343;-32.030;115.880;2022-07-29T13:13:14;101661.47;;;14.40;67.03
72370;BME280;60343;-32.030;115.880;2022-07-29T13:15:43;101669.75;;;14.38;67.64
72370;BME280;60343;-32.030;115.880;2022-07-29T13:18:34;101657.91;;;14.47;65.86
72370;BME280;60343;-32.030;115.880;2022-07-29T13:21:12;101646.66;;;14.36;65.96